ADDS METAR Data INFO
IDs: Format: Raw Decoded Include TAF

Data at: 2254 UTC 11 Dec 2017

PATK 112153Z 21004KT 10SM FEW070 OVC100 07/M01 A2957 RMK AO2 PRESRR SLP017 T00671011 $
PATK 112053Z 23006G14KT 10SM OVC065 07/M01 A2950 RMK AO2 SLP995 T00671006 51080 $
PATK 111953Z 22008KT 10SM OVC060 07/00 A2944 RMK AO2 SLP972 T00670000 $
PATK 111853Z 00000KT 10SM OVC070 04/M02 A2935 RMK AO2 PRESRR SLP944 T00391017 $
PATK 111753Z 00000KT 10SM BKN060 OVC070 04/M02 A2926 RMK AO2 PRESRR SLP914 T00391017 10061 20039 53060 $
PATK 111653Z AUTO 02005KT 10SM OVC090 06/M02 A2919 RMK AO2 SLP888 T00561017 TSNO $
PATK 111553Z AUTO 02006KT 10SM OVC080 06/M02 A2914 RMK AO2 SLP871 T00561017 TSNO $
PATK 111453Z AUTO 01006KT 10SM BKN110 06/M02 A2909 RMK AO2 SLP853 T00611022 53020 TSNO $
PATK 111353Z AUTO 36006KT 10SM OVC090 06/M02 A2904 RMK AO2 SLP838 T00561022 TSNO $
PATK 111253Z AUTO 01006G15KT 10SM SCT090 06/M03 A2901 RMK AO2 SLP826 T00611028 TSNO $
PATK 111153Z AUTO 03005KT 10SM BKN090 06/M03 A2902 RMK AO2 SLP832 T00561028 10056 20028 56017 TSNO $
PATK 111053Z AUTO 35005KT 10SM SCT095 06/M03 A2903 RMK AO2 SLP834 T00561028 TSNO $
PATK 110953Z AUTO 35003KT 10SM SCT095 05/M03 A2906 RMK AO2 SLP843 T00501028 TSNO $
PATK 110853Z AUTO 01006KT 10SM OVC100 06/M03 A2907 RMK AO2 SLP850 T00561033 400561044 56056 TSNO $
PATK 110753Z AUTO 02004KT 10SM BKN100 05/M03 A2912 RMK AO2 SLP867 T00501028 TSNO $
PATK 110653Z AUTO 01007KT 330V060 10SM OVC100 06/M03 A2918 RMK AO2 PRESFR SLP887 T00561028 TSNO $
PATK 110553Z AUTO 02003KT 10SM BKN090 OVC100 03/M03 A2924 RMK AO2 SLP907 T00331033 10039 20017 58075 TSNO $
PATK 110453Z AUTO 05007KT 10SM OVC100 03/M03 A2933 RMK AO2 SLP938 T00281028 TSNO $
PATK 110353Z AUTO 03008KT 10SM OVC110 03/M03 A2940 RMK AO2 SLP961 T00281033 TSNO $
PATK 110253Z AUTO 02009KT 10SM SCT120 03/M03 A2946 RMK AO2 PRESFR SLP983 T00281028 56067 TSNO $
PATK 110153Z 02008KT 10SM CLR 03/M03 A2953 RMK AO2 SLP005 T00281028 $
PATK 110053Z 04011KT 10SM CLR 02/M02 A2959 RMK AO2 SLP026 T00221022 $
PATK 102353Z 03010KT 10SM CLR 02/M02 A2966 RMK AO2 SLP051 T00221022 10022 21044 58030 $
PATK 102253Z 03009KT 10SM CLR 02/M02 A2971 RMK AO2 SLP066 T00171022 $
PATK 102153Z 04008KT 10SM CLR 01/M03 A2974 RMK AO2 SLP076 T00061028 $
PATK 102053Z 02003KT 10SM CLR M02/M04 A2975 RMK AO2 SLP082 T10221044 51015 $
PATK 101953Z 05005KT 10SM CLR M02/M03 A2975 RMK AO2 SLP081 T10171033 $
PATK 101853Z 00000KT 10SM FEW075 M02/M03 A2974 RMK AO2 SLP077 T10221033 $
PATK 101753Z 02004KT 10SM SCT075 BKN110 01/M02 A2971 RMK AO2 SLP066 T00111022 10011 21033 51041 $
PATK 101653Z AUTO 01003KT 10SM BKN085 OVC110 M02/M03 A2966 RMK AO2 SLP051 T10171028 TSNO $
PATK 101553Z AUTO 00000KT 10SM OVC090 M02/M04 A2964 RMK AO2 SLP043 T10221039 TSNO $
PATK 101453Z AUTO 34003KT 10SM BKN090 M03/M04 A2959 RMK AO2 SLP026 T10281044 51046 TSNO $
PATK 101353Z AUTO 00000KT 10SM OVC100 M02/M03 A2954 RMK AO2 SLP011 T10171033 TSNO $
PATK 101253Z AUTO 00000KT 10SM OVC095 M02/M04 A2950 RMK AO2 SLP995 T10221039 TSNO $
PATK 101153Z AUTO 00000KT 10SM SCT095 M02/M04 A2945 RMK AO2 SLP979 T10221039 11011 21039 53022 TSNO $